createdAt,value
2022-08-07T04:46:01.593Z,94.55
2022-08-07T04:47:03.834Z,94.65
2022-08-07T04:48:03.710Z,94.59
2022-08-07T04:48:58.059Z,94.24
2022-08-07T04:50:04.251Z,94.34
2022-08-07T04:50:58.035Z,94.14
2022-08-07T04:51:58.027Z,94.24
2022-08-07T04:52:58.008Z,94.14
2022-08-07T04:54:01.380Z,93.73
2022-08-07T04:54:58.249Z,93.52
2022-08-07T04:58:11.332Z,93.01
2022-08-07T04:59:16.886Z,93.32
2022-08-07T05:00:20.236Z,93.12
2022-08-07T05:00:35.468Z,93.01
2022-08-07T05:01:22.708Z,92.77
2022-08-07T05:02:22.672Z,93.07
2022-08-07T05:04:06.846Z,93.18
2022-08-07T05:04:22.647Z,93.18
2022-08-07T05:05:52.834Z,92.97
2022-08-07T05:06:22.627Z,92.87
2022-08-07T05:07:25.070Z,92.66
2022-08-07T05:08:59.939Z,92.42
2022-08-07T05:09:28.077Z,92.42
2022-08-07T05:10:22.600Z,92.62
2022-08-07T05:11:26.236Z,93.74
2022-08-07T05:12:27.304Z,93.13
2022-08-07T05:14:55.623Z,93.24
2022-08-07T05:15:04.719Z,92.32
2022-08-07T05:15:23.850Z,92.78
2022-08-07T05:16:22.517Z,92.47
2022-08-07T05:17:52.930Z,92.68
2022-08-07T05:18:22.507Z,92.78
2022-08-07T05:19:32.711Z,92.88
2022-08-07T05:20:22.505Z,92.33
2022-08-07T05:22:00.146Z,91.92
2022-08-07T05:22:27.770Z,91.72
2022-08-07T05:23:29.051Z,91.82
2022-08-07T05:24:24.562Z,91.61
2022-08-07T05:25:35.679Z,92.02
2022-08-07T05:26:24.413Z,91.11
2022-08-07T05:28:03.289Z,91.27
2022-08-07T05:28:26.936Z,89.94
2022-08-07T05:29:22.378Z,90.75
2022-08-07T05:30:32.827Z,89.63
2022-08-07T05:31:23.036Z,89.08
2022-08-07T05:32:22.365Z,89.90
2022-08-07T05:33:22.343Z,88.78
2022-08-07T05:34:26.196Z,90.00
2022-08-07T05:35:23.904Z,90.20
2022-08-07T05:36:30.212Z,89.08
2022-08-07T05:37:25.291Z,88.98
2022-08-07T05:39:00.108Z,89.79
2022-08-07T05:40:13.793Z,89.28
2022-08-07T05:40:23.943Z,89.90
2022-08-07T05:41:22.327Z,89.39
2022-08-07T05:42:33.904Z,88.88
2022-08-07T05:43:43.421Z,88.88
2022-08-07T05:44:29.047Z,88.63
2022-08-07T05:45:46.149Z,89.25
2022-08-07T05:46:22.204Z,88.93
2022-08-07T05:47:38.146Z,89.34
2022-08-07T05:48:26.319Z,90.06
2022-08-07T05:49:22.182Z,89.55
2022-08-07T05:50:22.157Z,89.51
2022-08-07T05:51:22.144Z,87.77
2022-08-07T05:52:29.812Z,87.43
2022-08-07T05:54:12.636Z,87.73
2022-08-07T05:54:53.429Z,86.71
2022-08-07T05:55:22.099Z,83.42
2022-08-07T05:56:29.932Z,82.70
2022-08-07T05:57:22.085Z,83.58
2022-08-07T05:58:22.114Z,83.68
2022-08-07T05:59:22.056Z,84.15
2022-08-07T06:00:22.069Z,83.84
2022-08-07T06:01:22.112Z,82.07
2022-08-07T06:02:22.145Z,81.16
2022-08-07T06:03:22.013Z,79.39
2022-08-07T06:04:22.005Z,75.90
2022-08-07T06:05:25.975Z,74.41
2022-08-07T06:06:21.991Z,74.58
2022-08-07T06:07:22.970Z,75.19
2022-08-07T06:08:30.850Z,74.85
2022-08-07T06:09:21.950Z,75.25
2022-08-07T06:10:21.956Z,72.72
2022-08-07T06:11:21.928Z,71.77
2022-08-07T06:12:27.956Z,71.26
2022-08-07T06:14:10.461Z,72.04
2022-08-07T06:14:28.752Z,71.73
2022-08-07T06:15:21.904Z,72.45
2022-08-07T06:16:21.875Z,71.13
2022-08-07T06:17:22.274Z,70.29
2022-08-07T06:18:21.859Z,70.39
2022-08-07T06:19:48.049Z,69.37
2022-08-07T06:20:25.669Z,71.80
2022-08-07T06:22:16.134Z,68.94
2022-08-07T06:22:28.558Z,69.85
2022-08-07T06:23:46.558Z,69.34
2022-08-07T06:24:53.220Z,69.61
2022-08-07T06:25:21.793Z,70.42
2022-08-07T06:26:21.773Z,68.10
2022-08-07T06:27:44.403Z,68.60
2022-08-07T06:28:27.421Z,69.71
2022-08-07T06:29:21.768Z,69.27
2022-08-07T06:30:31.894Z,67.76
2022-08-07T06:31:24.236Z,68.97
2022-08-07T06:32:21.713Z,68.77
2022-08-07T06:33:22.745Z,66.85
2022-08-07T06:34:21.689Z,66.75
2022-08-07T06:35:21.696Z,66.52
2022-08-07T06:36:35.007Z,68.74
2022-08-07T06:37:21.690Z,67.32
2022-08-07T06:38:21.640Z,67.93
2022-08-07T06:40:15.953Z,67.52
2022-08-07T06:40:26.466Z,68.71
2022-08-07T06:42:01.029Z,68.91
2022-08-07T06:42:32.934Z,67.90
2022-08-07T06:43:22.395Z,68.71
2022-08-07T06:44:21.580Z,67.49
2022-08-07T06:45:21.587Z,68.20
2022-08-07T06:46:35.001Z,66.69
2022-08-07T06:47:21.560Z,67.16
2022-08-07T06:48:24.688Z,66.15
2022-08-07T06:49:21.532Z,66.45
2022-08-07T06:50:21.531Z,65.01
2022-08-07T06:51:31.107Z,64.30
2022-08-07T06:52:31.694Z,64.98
2022-08-07T06:55:27.920Z,65.88
2022-08-07T06:55:54.130Z,63.36
2022-08-07T06:56:07.473Z,63.76
2022-08-07T06:56:49.985Z,63.64
2022-08-07T06:57:52.106Z,63.33
2022-08-07T07:00:13.788Z,63.53
2022-08-07T07:00:22.426Z,64.04
2022-08-07T07:00:48.927Z,62.63
2022-08-07T07:01:50.886Z,61.82
2022-08-07T07:02:57.441Z,61.21
2022-08-07T07:03:58.115Z,60.21
2022-08-07T07:04:54.992Z,61.41
2022-08-07T07:06:03.252Z,62.49
2022-08-07T07:07:00.116Z,61.29
2022-08-07T07:07:59.771Z,60.48
2022-08-07T07:08:48.850Z,60.17
2022-08-07T07:09:48.859Z,60.85
2022-08-07T07:10:57.113Z,60.55
2022-08-07T07:12:08.621Z,61.96
2022-08-07T07:12:50.248Z,60.65
2022-08-07T07:13:58.044Z,60.05
2022-08-07T07:14:48.798Z,61.46
2022-08-07T07:15:51.514Z,60.35
2022-08-07T07:16:50.554Z,60.65
2022-08-07T07:17:50.500Z,60.72
2022-08-07T07:18:48.869Z,59.62
2022-08-07T07:19:57.895Z,62.84
2022-08-07T07:20:48.721Z,57.70
2022-08-07T07:22:05.138Z,58.31
2022-08-07T07:24:08.316Z,58.38
2022-08-07T07:24:16.696Z,58.28
2022-08-07T07:24:58.553Z,57.85
2022-08-07T07:26:34.176Z,58.35
2022-08-07T07:26:51.768Z,57.75
2022-08-07T07:27:55.640Z,57.42
2022-08-07T07:29:56.955Z,57.42
2022-08-07T07:30:32.717Z,56.82
2022-08-07T07:30:48.615Z,56.41
2022-08-07T07:31:48.604Z,57.02
2022-08-07T07:32:48.592Z,57.52
2022-08-07T07:33:49.055Z,54.91
2022-08-07T07:34:48.839Z,54.71
2022-08-07T07:36:04.527Z,54.98
2022-08-07T07:36:54.044Z,55.79
2022-08-07T07:37:59.095Z,53.97
2022-08-07T07:38:48.533Z,55.08
2022-08-07T07:39:54.532Z,57.77
2022-08-07T07:40:48.511Z,56.36
2022-08-07T07:41:50.778Z,55.16
2022-08-07T07:42:53.726Z,54.65
2022-08-07T07:44:14.514Z,56.16
2022-08-07T07:44:49.454Z,53.25
2022-08-07T07:46:39.905Z,54.75
2022-08-07T07:47:13.988Z,56.13
2022-08-07T07:47:52.827Z,55.13
2022-08-07T07:48:48.418Z,55.63
2022-08-07T07:50:34.880Z,53.82
2022-08-07T07:50:48.424Z,53.62
2022-08-07T07:51:57.396Z,56.54
2022-08-07T07:52:48.393Z,55.10
2022-08-07T07:53:52.210Z,50.89
2022-08-07T07:54:51.183Z,52.12
2022-08-07T07:55:56.263Z,51.29
2022-08-07T07:56:48.354Z,55.00
2022-08-07T07:57:53.226Z,54.40
2022-08-07T07:58:48.327Z,53.09
2022-08-07T07:59:53.603Z,51.49
2022-08-07T08:00:53.773Z,51.72
2022-08-07T08:02:03.732Z,51.31
2022-08-07T08:03:04.869Z,52.39
2022-08-07T08:04:06.010Z,54.90
2022-08-07T08:04:50.448Z,51.37
2022-08-07T08:05:54.870Z,51.67
2022-08-07T08:06:52.273Z,51.56
2022-08-07T08:07:59.523Z,49.56
2022-08-07T08:08:48.369Z,50.16
2022-08-07T08:09:52.087Z,51.04
2022-08-07T08:10:48.214Z,52.04
2022-08-07T08:12:01.833Z,51.24
2022-08-07T08:12:59.084Z,50.71
2022-08-07T08:13:54.614Z,50.21
2022-08-07T08:14:48.165Z,49.58
2022-08-07T08:15:57.721Z,48.28
2022-08-07T08:16:50.434Z,48.99
2022-08-07T08:17:58.193Z,47.26
2022-08-07T08:18:50.557Z,47.49
2022-08-07T08:20:19.461Z,48.08
2022-08-07T08:20:48.131Z,47.50
2022-08-07T08:21:55.800Z,49.51
2022-08-07T08:22:56.030Z,47.99
2022-08-07T08:23:48.074Z,49.08
2022-08-07T08:24:48.052Z,53.07
2022-08-07T08:25:49.430Z,51.17
2022-08-07T08:26:50.391Z,50.76
2022-08-07T08:27:56.192Z,51.94
2022-08-07T08:28:48.014Z,47.42
2022-08-07T08:29:54.588Z,48.42
2022-08-07T08:30:51.441Z,46.72
2022-08-07T08:31:58.749Z,46.51
2022-08-07T08:32:49.177Z,46.04
2022-08-07T08:33:49.353Z,46.81
2022-08-07T08:34:47.951Z,47.92
2022-08-07T08:35:50.767Z,46.01
2022-08-07T08:36:47.923Z,46.31
2022-08-07T08:37:59.849Z,46.89
2022-08-07T08:38:47.908Z,45.20
2022-08-07T08:39:55.222Z,46.67
2022-08-07T08:40:47.907Z,45.27
2022-08-07T08:41:58.376Z,42.57
2022-08-07T08:42:47.864Z,43.77
2022-08-07T08:43:55.773Z,43.87
2022-08-07T08:44:47.849Z,45.75
2022-08-07T08:46:00.698Z,46.33
2022-08-07T08:46:47.825Z,43.83
2022-08-07T08:47:52.662Z,43.35
2022-08-07T08:48:50.953Z,45.05
2022-08-07T08:50:02.548Z,43.85
2022-08-07T08:50:47.803Z,40.73
2022-08-07T08:52:12.394Z,40.62
2022-08-07T08:52:51.516Z,41.31
2022-08-07T08:53:47.755Z,39.62
2022-08-07T08:54:47.735Z,38.02
2022-08-07T08:55:54.560Z,40.52
2022-08-07T08:56:48.009Z,40.52
2022-08-07T08:57:47.707Z,37.70
2022-08-07T08:58:47.694Z,40.42
2022-08-07T08:59:48.213Z,38.31
2022-08-07T09:00:48.659Z,40.00
2022-08-07T09:01:49.490Z,37.12
2022-08-07T09:02:49.530Z,38.74
2022-08-07T09:03:49.686Z,40.34
2022-08-07T09:04:47.633Z,40.20
2022-08-07T09:05:47.787Z,42.47
2022-08-07T09:06:48.218Z,39.86
2022-08-07T09:07:58.074Z,39.44
2022-08-07T09:08:47.596Z,36.05
2022-08-07T09:09:47.755Z,37.15
2022-08-07T09:10:47.583Z,36.14
2022-08-07T09:11:53.188Z,38.79
2022-08-07T09:12:53.461Z,36.88
2022-08-07T09:13:47.554Z,34.88
2022-08-07T09:14:50.767Z,33.17
2022-08-07T09:16:25.688Z,31.75
2022-08-07T09:16:47.752Z,35.39
2022-08-07T09:17:59.765Z,34.25
2022-08-07T09:18:53.310Z,32.04
2022-08-07T09:19:52.744Z,33.52
2022-08-07T09:20:57.854Z,31.99
2022-08-07T09:22:09.747Z,30.61
2022-08-07T09:24:30.559Z,31.35
2022-08-07T09:25:07.036Z,28.96
2022-08-07T09:25:20.273Z,29.23
2022-08-07T09:26:09.014Z,28.54
2022-08-07T09:27:11.935Z,26.65
2022-08-07T09:30:00.606Z,26.97
2022-08-07T09:30:08.958Z,27.69
2022-08-07T09:30:14.093Z,27.30
2022-08-07T09:31:15.529Z,27.87
2022-08-07T09:32:17.196Z,31.80
2022-08-07T09:33:16.426Z,28.44
2022-08-07T09:34:14.055Z,29.72
2022-08-07T09:36:02.851Z,29.19
2022-08-07T09:36:14.048Z,26.77
2022-08-07T09:37:14.014Z,26.92
2022-08-07T09:38:14.007Z,27.62
2022-08-07T09:39:27.404Z,28.66
2022-08-07T09:40:14.036Z,28.92
2022-08-07T09:41:13.987Z,28.61
2022-08-07T09:42:16.991Z,27.01
2022-08-07T09:43:14.643Z,25.54
2022-08-07T09:44:19.963Z,26.04
2022-08-07T09:47:49.689Z,28.08
2022-08-07T09:48:11.536Z,27.85
2022-08-07T09:48:20.187Z,28.68
2022-08-07T09:50:02.566Z,24.59
2022-08-07T09:50:22.944Z,24.90
2022-08-07T09:52:10.066Z,27.91
2022-08-07T09:52:33.868Z,26.43
2022-08-07T09:53:15.241Z,27.64
2022-08-07T09:54:16.385Z,28.19
2022-08-07T09:55:16.888Z,29.35
2022-08-07T09:56:19.813Z,25.12
2022-08-07T09:57:15.199Z,29.62
2022-08-07T09:58:15.179Z,25.17
2022-08-07T09:59:15.171Z,26.45
2022-08-07T10:00:15.170Z,26.91
2022-08-07T10:01:51.903Z,23.46
2022-08-07T10:02:15.139Z,25.65
2022-08-07T10:04:05.252Z,25.94
2022-08-07T10:04:16.827Z,27.62
2022-08-07T10:05:15.210Z,26.81
2022-08-07T10:06:17.358Z,24.64
2022-08-07T10:07:25.998Z,26.00
2022-08-07T10:08:15.080Z,24.11
2022-08-07T10:09:15.459Z,25.57
2022-08-07T10:10:21.272Z,26.16
2022-08-07T10:11:59.391Z,27.22
2022-08-07T10:12:21.551Z,25.95
2022-08-07T10:13:29.635Z,27.31
2022-08-07T10:14:15.013Z,30.09
2022-08-07T10:15:15.481Z,28.85
2022-08-07T10:16:14.995Z,29.05
2022-08-07T10:17:26.793Z,25.22
2022-08-07T10:18:14.974Z,28.09
2022-08-07T10:19:14.957Z,32.81
2022-08-07T10:20:14.950Z,31.44
2022-08-07T10:21:50.365Z,34.22
2022-08-07T10:22:24.943Z,31.21
2022-08-07T10:23:14.924Z,29.19
2022-08-07T10:24:18.487Z,28.27
2022-08-07T10:25:14.914Z,31.16
2022-08-07T10:26:14.899Z,28.63
2022-08-07T10:27:15.602Z,27.78
2022-08-07T10:28:14.878Z,26.48
2022-08-07T10:29:14.847Z,28.34
2022-08-07T10:30:14.896Z,25.89
2022-08-07T10:31:14.854Z,23.74
2022-08-07T10:32:36.467Z,23.27
2022-08-07T10:33:15.231Z,26.42
2022-08-07T10:34:15.483Z,28.36
2022-08-07T10:35:14.916Z,23.67
2022-08-07T10:36:14.798Z,23.99
2022-08-07T10:37:14.761Z,24.85
2022-08-07T10:38:36.314Z,24.68
2022-08-07T10:39:14.766Z,24.37
2022-08-07T10:40:14.854Z,26.84
2022-08-07T10:41:14.736Z,26.52
2022-08-07T10:42:20.918Z,25.08
2022-08-07T10:43:14.703Z,26.75
2022-08-07T10:44:14.692Z,29.09
2022-08-07T10:45:14.676Z,23.85
2022-08-07T10:46:14.683Z,24.91
2022-08-07T10:47:14.658Z,22.25
2022-08-07T10:48:14.648Z,23.16
2022-08-07T10:49:14.630Z,22.58
2022-08-07T10:50:15.148Z,23.29
2022-08-07T10:51:16.327Z,25.45
2022-08-07T10:52:14.614Z,26.15
2022-08-07T10:53:21.619Z,26.54
2022-08-07T10:54:14.590Z,24.21
2022-08-07T10:55:20.975Z,27.89
2022-08-07T10:56:30.107Z,24.73
2022-08-07T10:57:15.492Z,27.25
2022-08-07T10:58:14.548Z,22.35
2022-08-07T10:59:15.629Z,23.07
2022-08-07T11:00:36.714Z,24.81
2022-08-07T11:01:15.152Z,25.66
2022-08-07T11:02:33.129Z,22.66
2022-08-07T11:03:14.561Z,21.67
2022-08-07T11:04:31.472Z,24.38
2022-08-07T11:05:14.490Z,22.73
2022-08-07T11:06:15.751Z,24.10
2022-08-07T11:07:24.497Z,24.99
2022-08-07T11:08:16.437Z,23.72
2022-08-07T11:10:08.403Z,22.77
2022-08-07T11:10:15.330Z,24.08
2022-08-07T11:11:14.424Z,26.24
2022-08-07T11:12:14.409Z,25.55
2022-08-07T11:13:42.472Z,22.28
2022-08-07T11:15:00.238Z,23.10
2022-08-07T11:15:17.440Z,26.08
2022-08-07T11:16:14.384Z,25.08
2022-08-07T11:17:14.361Z,26.81
2022-08-07T11:18:14.370Z,23.90
2022-08-07T11:19:14.332Z,26.42
2022-08-07T11:20:14.424Z,23.54
2022-08-07T11:21:14.340Z,24.87
2022-08-07T11:22:26.612Z,24.05
2022-08-07T11:23:26.460Z,24.13
2022-08-07T11:24:14.292Z,21.00
2022-08-07T11:25:14.895Z,22.31
2022-08-07T11:26:14.280Z,22.56
2022-08-07T11:27:14.255Z,26.07
2022-08-07T11:28:15.533Z,22.09
2022-08-07T11:29:41.249Z,26.61
2022-08-07T11:30:18.406Z,22.91
2022-08-07T11:31:14.226Z,25.84
2022-08-07T11:32:14.204Z,22.50
2022-08-07T11:33:15.091Z,24.52
2022-08-07T11:34:16.541Z,25.31
2022-08-07T11:35:16.671Z,23.21
2022-08-07T11:36:14.186Z,25.63
2022-08-07T11:37:14.171Z,24.30
2022-08-07T11:38:17.499Z,23.63
2022-08-07T11:39:14.514Z,24.91
2022-08-07T11:40:19.181Z,27.56
2022-08-07T11:41:22.216Z,25.83
2022-08-07T11:42:18.641Z,24.55
2022-08-07T11:43:15.401Z,24.37
2022-08-07T11:44:18.480Z,25.34
2022-08-07T11:45:14.069Z,24.68
2022-08-07T11:46:14.084Z,25.44
2022-08-07T11:47:14.053Z,26.58
2022-08-07T11:48:26.800Z,24.99
2022-08-07T11:49:50.076Z,22.16
2022-08-07T11:50:33.247Z,22.64
2022-08-07T11:51:41.292Z,24.57
2022-08-07T11:52:14.029Z,24.84
2022-08-07T11:53:13.993Z,24.87
2022-08-07T11:54:13.985Z,24.43
2022-08-07T11:56:08.605Z,25.95
2022-08-07T11:56:29.900Z,22.31
2022-08-07T11:57:14.222Z,21.35
2022-08-07T11:58:16.465Z,21.39
2022-08-07T12:00:08.897Z,24.97
2022-08-07T12:00:19.288Z,28.02
2022-08-07T12:01:13.929Z,24.16
2022-08-07T12:02:20.631Z,27.29
2022-08-07T12:03:45.199Z,23.03
2022-08-07T12:04:13.891Z,27.20
2022-08-07T12:05:15.279Z,24.52
2022-08-07T12:06:36.938Z,24.30
2022-08-07T12:07:20.249Z,21.62
2022-08-07T12:08:26.099Z,24.93
2022-08-07T12:09:16.355Z,21.30
2022-08-07T12:10:13.833Z,22.31
2022-08-07T12:11:21.401Z,24.58
2022-08-07T12:12:13.827Z,24.18
2022-08-07T12:13:16.857Z,22.22
2022-08-07T12:14:13.789Z,23.45
2022-08-07T12:15:17.400Z,24.57
2022-08-07T12:16:13.773Z,25.26
2022-08-07T12:17:19.815Z,25.87
2022-08-07T12:18:13.754Z,25.49
2022-08-07T12:19:14.843Z,25.51
2022-08-07T12:20:20.051Z,27.74
2022-08-07T12:21:14.993Z,27.81
2022-08-07T12:22:38.655Z,23.40
2022-08-07T12:23:14.485Z,26.25
2022-08-07T12:24:37.764Z,24.69
2022-08-07T12:26:00.448Z,24.69
2022-08-07T12:26:30.940Z,25.82
2022-08-07T12:27:15.755Z,25.27
2022-08-07T12:28:13.928Z,27.47
2022-08-07T12:29:13.680Z,27.68
2022-08-07T12:30:13.628Z,27.82
2022-08-07T12:31:17.136Z,24.74
2022-08-07T12:32:13.610Z,24.43
2022-08-07T12:33:23.072Z,22.85
2022-08-07T12:34:13.596Z,23.06
2022-08-07T12:35:13.575Z,25.02
2022-08-07T12:36:13.589Z,26.72
2022-08-07T12:37:16.872Z,25.71
2022-08-07T12:38:30.647Z,23.74
2022-08-07T12:39:42.829Z,23.58
2022-08-07T12:40:36.152Z,24.96
2022-08-07T12:41:13.821Z,25.62
2022-08-07T12:42:13.626Z,22.88
2022-08-07T12:44:03.674Z,23.49
2022-08-07T12:44:17.331Z,24.84
2022-08-07T12:45:14.541Z,27.98
2022-08-07T12:46:15.719Z,28.27
2022-08-07T12:47:13.474Z,26.17
2022-08-07T12:48:28.248Z,25.03
2022-08-07T12:49:25.617Z,25.23
2022-08-07T12:50:39.473Z,25.45
2022-08-07T12:51:17.764Z,26.88
2022-08-07T12:52:14.244Z,27.15
2022-08-07T12:53:17.849Z,23.79
2022-08-07T12:54:37.340Z,24.60
2022-08-07T12:55:16.514Z,25.21
2022-08-07T12:56:13.369Z,28.23
2022-08-07T12:57:18.757Z,26.42
2022-08-07T12:58:13.358Z,25.27
2022-08-07T12:59:20.453Z,24.96
2022-08-07T13:00:13.339Z,24.76
2022-08-07T13:01:13.375Z,24.57
2022-08-07T13:02:13.318Z,26.24
2022-08-07T13:03:22.844Z,24.79
2022-08-07T13:04:18.879Z,25.78
2022-08-07T13:06:01.894Z,26.90
2022-08-07T13:06:21.514Z,27.13
2022-08-07T13:08:12.459Z,27.84
2022-08-07T13:08:23.438Z,27.77
2022-08-07T13:10:20.479Z,27.49
2022-08-07T13:10:51.727Z,28.88
2022-08-07T13:11:16.126Z,28.38
2022-08-07T13:12:15.150Z,27.21
2022-08-07T13:13:13.187Z,27.80
2022-08-07T13:14:13.188Z,29.58
2022-08-07T13:15:14.190Z,27.39
2022-08-07T13:16:13.177Z,29.86
2022-08-07T13:17:13.149Z,30.64
2022-08-07T13:18:25.898Z,27.67
2022-08-07T13:19:18.420Z,27.48
2022-08-07T13:20:13.125Z,29.64
2022-08-07T13:21:13.128Z,28.05
2022-08-07T13:22:26.887Z,27.17
2022-08-07T13:24:01.086Z,30.21
2022-08-07T13:24:13.087Z,27.44
2022-08-07T13:25:15.245Z,27.45
2022-08-07T13:26:16.071Z,27.44
2022-08-07T13:27:13.058Z,27.14
2022-08-07T13:28:18.311Z,27.93
2022-08-07T13:29:13.032Z,27.84
2022-08-07T13:30:19.679Z,27.58
2022-08-07T13:31:13.740Z,28.07
2022-08-07T13:32:32.558Z,29.07
2022-08-07T13:33:16.604Z,30.08
2022-08-07T13:34:36.838Z,28.49
2022-08-07T13:35:12.964Z,29.47
2022-08-07T13:36:17.741Z,27.49
2022-08-07T13:37:20.493Z,28.59
2022-08-07T13:38:12.945Z,28.88
2022-08-07T13:39:49.493Z,30.85
2022-08-07T13:40:42.222Z,28.38
2022-08-07T13:41:13.041Z,28.08
2022-08-07T13:42:12.894Z,30.47
2022-08-07T13:43:12.883Z,27.69
2022-08-07T13:44:13.277Z,29.09
2022-08-07T13:46:21.529Z,28.69
2022-08-07T13:46:33.058Z,29.21
2022-08-07T13:47:27.767Z,28.93
2022-08-07T13:48:20.598Z,30.21
2022-08-07T13:50:35.061Z,31.69
2022-08-07T13:51:00.254Z,30.09
2022-08-07T13:51:27.955Z,32.07
2022-08-07T13:52:30.501Z,29.78
2022-08-07T13:53:14.584Z,29.19
2022-08-07T13:54:16.298Z,31.07
2022-08-07T13:55:13.154Z,30.37
2022-08-07T13:56:12.761Z,28.20
2022-08-07T13:57:14.488Z,28.49
2022-08-07T13:58:12.737Z,28.51
2022-08-07T13:59:13.020Z,29.41
2022-08-07T14:00:26.802Z,29.13
2022-08-07T14:01:12.700Z,32.39
2022-08-07T14:02:13.089Z,31.29
2022-08-07T14:03:13.902Z,30.10
2022-08-07T14:04:12.750Z,30.02
2022-08-07T14:05:12.680Z,29.23
2022-08-07T14:06:12.643Z,29.44
2022-08-07T14:07:12.645Z,30.15
2022-08-07T14:08:12.623Z,32.61
2022-08-07T14:09:17.046Z,34.28
2022-08-07T14:10:20.369Z,31.81
2022-08-07T14:11:14.939Z,33.47
2022-08-07T14:12:13.730Z,29.81
2022-08-07T14:13:12.566Z,30.39
2022-08-07T14:14:12.556Z,30.70
2022-08-07T14:15:12.544Z,30.21
2022-08-07T14:16:15.430Z,31.31
2022-08-07T14:17:32.265Z,32.40
2022-08-07T14:18:28.415Z,31.99
2022-08-07T14:19:17.754Z,31.39
2022-08-07T14:20:49.134Z,30.90
2022-08-07T14:22:00.469Z,31.20
2022-08-07T14:22:17.024Z,30.68
2022-08-07T14:23:12.464Z,29.79
2022-08-07T14:24:12.455Z,31.08
2022-08-07T14:25:12.429Z,29.79
2022-08-07T14:26:28.204Z,30.10
2022-08-07T14:28:11.455Z,31.69
2022-08-07T14:28:17.600Z,31.31
2022-08-07T14:30:05.596Z,31.31
2022-08-07T14:30:15.134Z,30.02
2022-08-07T14:31:12.378Z,30.02
2022-08-07T14:32:12.674Z,30.43
2022-08-07T14:33:12.359Z,31.52
2022-08-07T14:34:12.353Z,31.32
2022-08-07T14:35:12.343Z,30.32
2022-08-07T14:36:12.324Z,32.10
2022-08-07T14:37:16.352Z,30.52
2022-08-07T14:38:30.271Z,31.41
2022-08-07T14:39:12.523Z,29.63
2022-08-07T14:40:26.326Z,33.09
2022-08-07T14:41:15.042Z,29.85
2022-08-07T14:42:20.869Z,33.82
2022-08-07T14:43:59.384Z,31.44
2022-08-07T14:44:16.504Z,30.94
2022-08-07T14:45:21.244Z,31.44
2022-08-07T14:46:12.226Z,31.74
2022-08-07T14:47:16.413Z,32.42
2022-08-07T14:48:19.863Z,30.55
2022-08-07T14:49:55.863Z,31.54
2022-08-07T15:52:02.750Z,31.44
2022-08-07T15:52:09.549Z,32.24
2022-08-07T15:53:07.711Z,31.55
2022-08-07T15:54:11.999Z,31.26
2022-08-07T15:55:08.631Z,31.75
2022-08-07T15:56:07.662Z,33.24
2022-08-07T15:57:07.657Z,32.63
2022-08-07T15:58:10.472Z,32.33
2022-08-07T15:59:16.335Z,32.02
2022-08-07T16:00:07.673Z,31.24
2022-08-07T16:01:07.675Z,31.63
2022-08-07T16:02:07.744Z,30.87
2022-08-07T16:03:08.532Z,32.66
2022-08-07T16:04:14.566Z,30.28
2022-08-07T16:05:15.076Z,31.57
2022-08-07T16:06:07.608Z,33.94
2022-08-07T16:08:28.298Z,30.57
2022-08-07T16:08:38.981Z,33.85
2022-08-07T16:09:07.651Z,31.95
2022-08-07T16:10:11.686Z,33.24
2022-08-07T16:11:17.377Z,31.35
2022-08-07T16:12:07.490Z,31.65
2022-08-07T16:13:17.415Z,32.54
2022-08-07T16:14:07.472Z,31.65
2022-08-07T16:15:07.457Z,32.15
2022-08-07T16:16:48.492Z,30.57
2022-08-07T16:17:16.061Z,35.24
2022-08-07T16:18:07.444Z,32.06
2022-08-07T16:19:09.507Z,31.96
2022-08-07T16:20:07.395Z,29.68
2022-08-07T16:22:04.955Z,34.84
2022-08-07T16:22:33.674Z,32.86
2022-08-07T16:23:09.823Z,31.07
2022-08-07T16:24:09.236Z,30.08
2022-08-07T16:25:07.741Z,32.96
2022-08-07T16:26:07.331Z,32.86
2022-08-07T16:27:18.083Z,29.98
2022-08-07T16:28:11.482Z,33.36
2022-08-07T16:30:11.139Z,31.47
2022-08-07T16:30:35.875Z,32.66
2022-08-07T16:31:10.014Z,32.86
2022-08-07T16:32:07.266Z,31.88
2022-08-07T16:34:01.685Z,31.29
2022-08-07T16:34:23.616Z,31.78
2022-08-07T16:35:50.307Z,33.27
2022-08-07T16:36:07.228Z,33.67
2022-08-07T16:38:02.941Z,34.05
2022-08-07T16:38:11.609Z,33.95
2022-08-07T16:39:07.229Z,34.74
2022-08-07T16:40:10.479Z,32.26
2022-08-07T16:41:07.261Z,32.64
2022-08-07T16:42:07.154Z,31.55
2022-08-07T16:43:07.168Z,32.35
2022-08-07T16:44:40.484Z,33.24
2022-08-07T16:45:15.487Z,32.75
2022-08-07T16:46:47.318Z,32.35
2022-08-07T16:47:14.382Z,32.06
2022-08-07T16:48:07.122Z,31.96
2022-08-07T16:50:28.884Z,35.24
2022-08-07T16:51:07.267Z,32.36
2022-08-07T16:52:01.388Z,32.08
2022-08-07T16:52:55.315Z,32.09
2022-08-07T16:53:48.144Z,35.17
2022-08-07T16:54:09.612Z,33.59
2022-08-07T16:55:12.968Z,33.48
2022-08-07T16:56:07.015Z,34.18
2022-08-07T16:57:06.999Z,36.66
2022-08-07T16:58:08.104Z,34.80
2022-08-07T16:59:10.758Z,32.90
2022-08-07T17:00:07.840Z,34.11
2022-08-07T17:01:07.937Z,33.72
2022-08-07T17:02:06.942Z,34.52
2022-08-07T17:03:07.124Z,33.93
2022-08-07T17:04:07.663Z,33.63
2022-08-07T17:05:06.919Z,34.83
2022-08-07T17:06:29.937Z,34.91
2022-08-07T17:07:06.901Z,37.10
2022-08-07T17:08:09.110Z,37.40
2022-08-07T17:09:09.347Z,36.80
2022-08-07T17:10:09.335Z,37.10
2022-08-07T17:11:06.850Z,38.99
2022-08-07T17:12:34.434Z,35.91
2022-08-07T17:13:08.483Z,36.90
2022-08-07T17:14:18.070Z,38.09
2022-08-07T17:15:06.806Z,38.49
2022-08-07T17:16:06.789Z,38.59
2022-08-07T17:17:06.784Z,36.12
2022-08-07T17:18:08.025Z,36.82
2022-08-07T17:19:06.774Z,37.12
2022-08-07T17:20:14.267Z,36.72
2022-08-07T17:21:18.542Z,39.01
2022-08-07T17:22:06.730Z,36.12
2022-08-07T17:23:08.580Z,37.63
2022-08-07T17:24:07.026Z,35.14
2022-08-07T17:25:08.261Z,36.04
2022-08-07T17:26:06.676Z,36.83
2022-08-07T17:27:06.684Z,35.84
2022-08-07T17:28:06.940Z,36.25
2022-08-07T17:29:06.649Z,37.65
2022-08-07T17:30:15.474Z,37.75
2022-08-07T17:31:16.009Z,37.05
2022-08-07T17:32:06.624Z,37.25
2022-08-07T17:34:10.286Z,37.05
2022-08-07T17:34:57.186Z,36.25
2022-08-07T17:35:55.269Z,37.37
2022-08-07T17:36:13.683Z,38.17
2022-08-07T17:37:14.341Z,38.46
2022-08-07T17:38:32.018Z,37.79
2022-08-07T17:39:10.542Z,37.88
2022-08-07T17:40:07.942Z,37.79
2022-08-07T17:42:01.077Z,39.58
2022-08-07T17:42:07.727Z,37.49
2022-08-07T17:43:17.936Z,38.18
2022-08-07T17:44:13.715Z,37.88
2022-08-07T17:45:06.494Z,37.88
2022-08-07T17:46:06.487Z,38.39
2022-08-07T17:47:08.490Z,38.18
2022-08-07T17:48:06.467Z,36.89
2022-08-07T17:49:08.992Z,37.88
2022-08-07T17:50:06.434Z,37.59
2022-08-07T17:51:06.436Z,37.98
2022-08-07T17:52:06.419Z,37.49
2022-08-07T17:53:06.425Z,38.59
2022-08-07T17:54:11.532Z,38.98
2022-08-07T17:55:06.392Z,38.59
2022-08-07T17:56:07.058Z,39.18
2022-08-07T17:57:18.404Z,40.08
2022-08-07T17:58:06.372Z,38.09
2022-08-07T17:59:06.345Z,40.18
2022-08-07T18:00:06.328Z,39.00
2022-08-07T18:01:17.966Z,38.70
2022-08-07T18:02:06.399Z,41.00
2022-08-07T18:03:09.221Z,39.10
2022-08-07T18:04:07.785Z,38.50
2022-08-07T18:05:20.723Z,39.60
2022-08-07T18:06:06.722Z,40.20
2022-08-07T18:07:20.536Z,39.40
2022-08-07T18:08:06.918Z,39.10
2022-08-07T18:09:06.545Z,40.40
2022-08-07T18:10:10.357Z,39.00
2022-08-07T18:12:12.038Z,40.59
2022-08-07T18:12:35.140Z,39.00
2022-08-07T18:13:06.197Z,39.40
2022-08-07T18:14:06.641Z,39.42
2022-08-07T18:15:08.653Z,39.22
2022-08-07T18:16:06.164Z,39.32
2022-08-07T18:17:06.157Z,38.92
2022-08-07T18:18:45.956Z,40.52
2022-08-07T18:21:42.091Z,40.72
2022-08-07T18:22:06.254Z,39.22
2022-08-07T18:22:17.095Z,39.52
2022-08-07T18:23:42.634Z,39.52
2022-08-07T18:24:28.379Z,39.22
2022-08-07T18:25:19.500Z,39.92
2022-08-07T18:26:16.591Z,41.52
2022-08-07T18:27:17.163Z,40.32
2022-08-07T18:28:35.283Z,41.33
2022-08-07T18:30:05.380Z,40.53
2022-08-07T18:30:31.266Z,40.14
2022-08-07T18:31:18.666Z,40.14
2022-08-07T18:32:16.776Z,40.83
2022-08-07T18:33:16.443Z,41.14
2022-08-07T18:34:37.482Z,41.14
2022-08-07T18:35:16.429Z,42.43
2022-08-07T18:36:16.417Z,42.76
2022-08-07T18:38:55.332Z,42.65
2022-08-07T18:40:06.589Z,48.47
2022-08-07T18:40:18.649Z,45.07
2022-08-07T18:40:53.443Z,44.59
2022-08-07T18:41:24.296Z,46.19
2022-08-07T18:42:27.882Z,43.62
2022-08-07T18:43:37.135Z,45.81